Time;durP1;ratioP1;P1;durP2;ratioP2;P2;SDS_P1;SDS_P2;PMS_P1;PMS_P2;Temp;Humidity;BMP_temperature;BMP_pressure;BME280_temperature;BME280_humidity;BME280_pressure;Samples;Min_cycle;Max_cycle;Signal;HPM_P1;HPM_P2
2020/12/05 00:01:17;;;;;;;7.43;5.88;;;3.60;99.90;;;;;;3623215;39;20352;-74
2020/12/05 00:03:43;;;;;;;9.02;5.30;;;3.50;99.90;;;;;;3620438;39;20349;-74
2020/12/05 00:06:10;;;;;;;6.90;5.30;;;3.50;99.90;;;;;;3620265;39;20273;-73
2020/12/05 00:08:37;;;;;;;5.15;4.72;;;3.50;99.90;;;;;;3623672;39;20354;-73
2020/12/05 00:11:04;;;;;;;5.97;5.35;;;3.40;99.90;;;;;;3621770;39;20276;-74
2020/12/05 00:13:30;;;;;;;5.63;5.05;;;3.50;99.90;;;;;;3621693;39;20266;-74
2020/12/05 00:15:56;;;;;;;5.82;4.30;;;3.40;99.90;;;;;;3622448;39;21155;-74
2020/12/05 00:18:23;;;;;;;6.38;4.60;;;3.50;99.90;;;;;;3621926;39;20400;-74
2020/12/05 00:20:49;;;;;;;5.10;4.60;;;3.50;99.90;;;;;;3623733;39;20365;-74
2020/12/05 00:23:16;;;;;;;8.10;6.18;;;3.40;99.90;;;;;;3623947;39;20426;-74
2020/12/05 00:25:43;;;;;;;6.00;5.22;;;3.50;99.90;;;;;;3622084;39;20352;-74
2020/12/05 00:28:10;;;;;;;8.27;5.75;;;3.50;99.90;;;;;;3624050;39;20270;-74
2020/12/05 00:30:36;;;;;;;5.63;5.13;;;3.60;99.90;;;;;;3622283;39;20292;-73
2020/12/05 00:33:03;;;;;;;6.05;5.20;;;3.60;99.90;;;;;;3622005;39;20345;-74
2020/12/05 00:35:30;;;;;;;5.75;5.20;;;3.60;99.90;;;;;;3622326;39;20266;-74
2020/12/05 00:37:57;;;;;;;6.10;5.50;;;3.60;99.90;;;;;;3621482;39;20712;-74
2020/12/05 00:40:24;;;;;;;5.35;4.82;;;3.60;99.90;;;;;;3621717;39;20292;-74
2020/12/05 00:42:51;;;;;;;5.57;5.07;;;3.50;99.90;;;;;;3621669;39;20271;-74
2020/12/05 00:45:18;;;;;;;7.82;6.32;;;3.50;99.90;;;;;;3649387;31;20330;-74
2020/12/05 00:47:44;;;;;;;7.07;5.28;;;3.50;99.90;;;;;;3622000;39;20262;-74
2020/12/05 00:50:10;;;;;;;7.70;5.50;;;3.50;99.90;;;;;;3621199;39;20358;-74
2020/12/05 00:52:37;;;;;;;5.32;4.82;;;3.50;99.90;;;;;;3622027;39;20766;-74
2020/12/05 00:55:03;;;;;;;8.95;5.28;;;3.50;99.90;;;;;;3624946;39;20269;-74
2020/12/05 00:57:31;;;;;;;6.78;5.88;;;3.60;99.90;;;;;;3624062;39;20365;-74
2020/12/05 00:59:59;;;;;;;7.35;5.38;;;3.70;99.90;;;;;;3623736;39;20357;-74
2020/12/05 01:02:26;;;;;;;6.50;5.32;;;3.70;99.90;;;;;;3620378;39;20245;-74
2020/12/05 01:04:52;;;;;;;6.30;5.35;;;3.60;99.90;;;;;;3620574;32;20369;-73
2020/12/05 01:07:22;;;;;;;6.25;5.55;;;3.60;99.90;;;;;;3621177;39;20773;-74
2020/12/05 01:09:48;;;;;;;6.85;6.05;;;3.60;99.90;;;;;;3621260;39;20262;-74
2020/12/05 01:12:15;;;;;;;6.35;5.72;;;3.60;99.90;;;;;;3623583;39;20301;-73
2020/12/05 01:14:41;;;;;;;6.13;5.45;;;3.60;99.90;;;;;;3621617;39;20362;-74
2020/12/05 01:17:09;;;;;;;6.43;5.78;;;3.60;99.90;;;;;;3625757;31;20300;-74
2020/12/05 01:19:35;;;;;;;6.07;5.47;;;3.60;99.90;;;;;;3620950;39;20261;-74
2020/12/05 01:22:02;;;;;;;7.47;5.63;;;3.60;99.90;;;;;;3621400;39;20292;-74
2020/12/05 01:24:28;;;;;;;6.20;5.60;;;3.60;99.90;;;;;;3621336;39;20261;-74
2020/12/05 01:26:54;;;;;;;5.90;5.32;;;3.60;99.90;;;;;;3622759;32;20344;-73
2020/12/05 01:29:21;;;;;;;6.63;6.03;;;3.60;99.90;;;;;;3620423;39;20377;-73
2020/12/05 01:31:48;;;;;;;7.03;5.25;;;3.60;99.90;;;;;;3621892;39;20413;-73
2020/12/05 01:34:15;;;;;;;7.40;6.20;;;3.60;99.90;;;;;;3622649;31;20258;-73
2020/12/05 01:36:45;;;;;;;6.53;5.55;;;3.60;99.90;;;;;;3621077;39;20361;-73
2020/12/05 01:39:12;;;;;;;8.77;6.07;;;3.50;99.90;;;;;;3625218;39;20292;-73
2020/12/05 01:41:39;;;;;;;6.95;6.22;;;3.60;99.90;;;;;;3622171;39;20262;-74
2020/12/05 01:44:06;;;;;;;9.68;6.93;;;3.50;99.90;;;;;;3622526;39;20275;-74
2020/12/05 01:46:37;;;;;;;8.82;6.80;;;3.50;99.90;;;;;;3620752;39;20409;-74
2020/12/05 01:49:04;;;;;;;8.90;6.43;;;3.60;99.90;;;;;;3620907;39;20272;-74
2020/12/05 01:51:32;;;;;;;9.90;6.68;;;3.60;99.90;;;;;;3623153;39;20413;-74
2020/12/05 01:53:59;;;;;;;9.95;6.00;;;3.60;99.90;;;;;;3628688;32;20273;-74
2020/12/05 01:56:27;;;;;;;8.25;7.03;;;3.60;99.90;;;;;;3620774;39;20368;-74
2020/12/05 01:58:54;;;;;;;6.40;5.65;;;3.60;99.90;;;;;;3620696;39;20266;-74
2020/12/05 02:01:22;;;;;;;7.78;6.85;;;3.60;99.90;;;;;;3620422;39;20261;-74
2020/12/05 02:03:51;;;;;;;10.65;6.13;;;3.70;99.90;;;;;;3621200;39;20270;-74
2020/12/05 02:06:46;;;;;;;7.18;6.47;;;3.70;99.90;;;;;;3624236;32;20298;-74
2020/12/05 02:09:19;;;;;;;8.57;6.13;;;3.70;99.90;;;;;;3623926;39;20477;-74
2020/12/05 02:11:57;;;;;;;7.28;6.57;;;3.70;99.90;;;;;;3622625;39;20298;-74
2020/12/05 02:14:27;;;;;;;6.88;5.80;;;3.70;99.90;;;;;;3623296;39;21399;-74
2020/12/05 02:16:59;;;;;;;8.82;6.65;;;3.70;99.90;;;;;;3625813;39;20277;-74
2020/12/05 02:19:39;;;;;;;10.85;7.05;;;3.70;99.90;;;;;;3621097;39;20283;-75
2020/12/05 02:22:11;;;;;;;7.75;6.53;;;3.70;99.90;;;;;;3620560;39;20281;-74
2020/12/05 02:24:39;;;;;;;8.38;6.68;;;3.70;99.90;;;;;;3623023;39;20254;-74
2020/12/05 02:27:05;;;;;;;9.25;6.82;;;3.80;99.90;;;;;;3622789;39;21000;-73
2020/12/05 02:29:34;;;;;;;8.20;6.30;;;3.80;99.90;;;;;;3626710;39;20341;-74
2020/12/05 02:32:03;;;;;;;9.38;6.80;;;3.70;99.90;;;;;;3620734;39;20301;-74
2020/12/05 02:34:30;;;;;;;10.25;7.10;;;3.80;99.90;;;;;;3623341;39;20264;-74
2020/12/05 02:36:59;;;;;;;8.95;6.50;;;3.80;99.90;;;;;;3624021;39;20975;-74
2020/12/05 02:39:44;;;;;;;8.25;6.88;;;3.80;99.90;;;;;;3622548;39;20217;-74
2020/12/05 02:42:13;;;;;;;7.70;6.10;;;3.90;99.90;;;;;;3620187;39;20344;-74
2020/12/05 02:44:48;;;;;;;11.98;8.38;;;3.90;99.90;;;;;;3622744;39;20993;-74
2020/12/05 02:47:15;;;;;;;11.25;6.40;;;3.90;99.90;;;;;;3620264;39;20340;-74
2020/12/05 02:49:42;;;;;;;10.75;5.93;;;4.00;99.90;;;;;;3623780;39;20295;-74
2020/12/05 02:52:08;;;;;;;7.43;5.68;;;4.00;99.90;;;;;;3621286;39;20289;-74
2020/12/05 02:55:13;;;;;;;8.13;6.85;;;4.00;99.90;;;;;;3625361;31;20254;-74
2020/12/05 02:57:39;;;;;;;7.93;6.63;;;4.00;99.90;;;;;;3624210;39;20277;-74
2020/12/05 03:00:06;;;;;;;7.60;6.38;;;4.10;99.90;;;;;;3621896;39;20270;-74
2020/12/05 03:02:32;;;;;;;9.15;7.07;;;4.10;99.90;;;;;;3619510;39;20354;-74
2020/12/05 03:04:59;;;;;;;8.23;6.65;;;4.10;99.90;;;;;;3620581;39;20361;-74
2020/12/05 03:07:25;;;;;;;8.98;7.03;;;4.00;99.90;;;;;;3635885;32;20343;-73
2020/12/05 03:09:52;;;;;;;8.20;6.40;;;4.00;99.90;;;;;;3620561;39;20290;-74
2020/12/05 03:12:19;;;;;;;10.18;6.80;;;4.10;99.90;;;;;;3621892;39;20273;-73
2020/12/05 03:14:45;;;;;;;8.40;7.38;;;4.10;99.90;;;;;;3620359;39;20970;-74
2020/12/05 03:17:12;;;;;;;10.45;7.38;;;4.10;99.90;;;;;;3620400;39;20315;-74
2020/12/05 03:19:39;;;;;;;8.45;6.13;;;4.20;99.90;;;;;;3620798;39;20266;-74
2020/12/05 03:22:05;;;;;;;8.35;7.22;;;4.20;99.90;;;;;;3622435;39;20361;-74
2020/12/05 03:24:31;;;;;;;6.90;6.20;;;4.20;99.90;;;;;;3620138;39;20272;-74
2020/12/05 03:26:58;;;;;;;10.95;6.70;;;4.20;99.90;;;;;;3620171;39;20521;-74
2020/12/05 03:29:25;;;;;;;8.15;6.85;;;4.20;99.90;;;;;;3623680;39;20261;-74
2020/12/05 03:31:55;;;;;;;7.00;6.22;;;4.20;99.90;;;;;;3624134;39;20350;-73
2020/12/05 03:34:21;;;;;;;11.57;6.70;;;4.20;99.90;;;;;;3629514;32;20266;-74
2020/12/05 03:36:48;;;;;;;9.40;6.55;;;4.30;99.90;;;;;;3619649;39;20285;-74
2020/12/05 03:39:14;;;;;;;8.98;6.30;;;4.30;99.90;;;;;;3619853;39;20286;-74
2020/12/05 03:41:41;;;;;;;7.05;6.15;;;4.30;99.90;;;;;;3625746;39;20580;-73
2020/12/05 03:44:07;;;;;;;8.18;6.40;;;4.30;99.90;;;;;;3620328;39;20266;-74
2020/12/05 03:46:35;;;;;;;6.78;6.07;;;4.30;99.90;;;;;;3621110;39;20254;-74
2020/12/05 03:49:02;;;;;;;9.57;7.00;;;4.20;99.90;;;;;;3629335;31;20268;-74
2020/12/05 03:51:28;;;;;;;7.47;6.65;;;4.20;99.90;;;;;;3622493;39;20666;-73
2020/12/05 03:53:55;;;;;;;8.10;6.60;;;4.20;99.90;;;;;;3621828;39;20345;-74
2020/12/05 03:56:21;;;;;;;9.13;6.10;;;4.20;99.90;;;;;;3625526;39;20301;-74
2020/12/05 03:58:50;;;;;;;8.52;6.43;;;4.30;99.90;;;;;;3624087;39;20404;-74
2020/12/05 04:01:17;;;;;;;12.32;7.03;;;4.30;99.90;;;;;;3651198;32;20305;-74
2020/12/05 04:03:44;;;;;;;10.43;7.38;;;4.30;99.90;;;;;;3622890;39;20272;-74
2020/12/05 04:06:12;;;;;;;8.52;6.82;;;4.20;99.90;;;;;;3626010;39;20380;-74
2020/12/05 04:08:39;;;;;;;7.63;6.47;;;4.20;99.90;;;;;;3622364;39;20277;-74
2020/12/05 04:11:06;;;;;;;11.52;7.20;;;4.30;99.90;;;;;;3625623;39;20361;-74
2020/12/05 04:13:32;;;;;;;8.00;6.88;;;4.30;99.90;;;;;;3622014;39;20251;-74
2020/12/05 04:15:59;;;;;;;10.23;6.90;;;4.30;99.90;;;;;;3629143;39;20559;-74
2020/12/05 04:18:25;;;;;;;8.23;6.68;;;4.30;99.90;;;;;;3624283;31;20358;-74
2020/12/05 04:20:53;;;;;;;8.85;6.43;;;4.40;99.90;;;;;;3625534;39;20289;-74
2020/12/05 04:23:19;;;;;;;9.68;6.50;;;4.40;99.90;;;;;;3624103;39;20791;-74
2020/12/05 04:25:46;;;;;;;9.20;7.28;;;4.40;99.90;;;;;;3623847;39;20331;-74
2020/12/05 04:28:12;;;;;;;8.90;6.13;;;4.40;99.90;;;;;;3625449;39;20361;-74
2020/12/05 04:30:38;;;;;;;8.48;6.90;;;4.40;99.90;;;;;;3623870;39;20284;-74
2020/12/05 04:33:05;;;;;;;9.68;6.03;;;4.50;99.90;;;;;;3621664;39;20258;-74
2020/12/05 04:35:31;;;;;;;10.05;6.25;;;4.50;99.90;;;;;;3625357;39;20301;-75
2020/12/05 04:37:59;;;;;;;7.65;6.25;;;4.50;99.90;;;;;;3620927;39;20311;-74
2020/12/05 04:40:26;;;;;;;8.85;6.90;;;4.50;99.90;;;;;;3621551;39;20346;-74
2020/12/05 04:42:52;;;;;;;11.15;6.47;;;4.60;99.90;;;;;;3621698;39;20278;-75
2020/12/05 04:45:19;;;;;;;7.68;6.32;;;4.50;99.90;;;;;;3623812;39;20394;-74
2020/12/05 04:47:45;;;;;;;8.15;6.38;;;4.50;99.90;;;;;;3624194;39;20330;-72
2020/12/05 04:50:12;;;;;;;11.07;7.68;;;4.50;99.90;;;;;;3622387;39;20374;-74
2020/12/05 04:52:47;;;;;;;8.00;6.28;;;4.50;99.90;;;;;;3621555;39;20282;-73
2020/12/05 04:55:15;;;;;;;11.10;7.45;;;4.40;99.90;;;;;;3625022;39;22113;-74
2020/12/05 04:57:47;;;;;;;10.48;7.43;;;4.40;99.90;;;;;;3621173;39;20293;-74
2020/12/05 05:00:14;;;;;;;8.57;6.75;;;4.40;99.90;;;;;;3621807;39;20273;-74
2020/12/05 05:02:43;;;;;;;9.65;6.45;;;4.40;99.90;;;;;;3621221;39;20265;-74
2020/12/05 05:05:11;;;;;;;11.52;6.68;;;4.30;99.90;;;;;;3623722;39;20282;-74
2020/12/05 05:07:47;;;;;;;9.70;8.00;;;4.20;99.90;;;;;;3624883;39;20284;-75
2020/12/05 05:10:22;;;;;;;14.82;8.73;;;4.20;99.90;;;;;;3622656;39;20383;-73
2020/12/05 05:12:49;;;;;;;12.20;8.20;;;4.20;99.90;;;;;;3623800;39;20260;-74
2020/12/05 05:15:28;;;;;;;10.85;7.93;;;4.30;99.90;;;;;;3625143;32;20268;-73
2020/12/05 05:17:54;;;;;;;13.85;9.82;;;4.30;99.90;;;;;;3621397;39;20263;-73
2020/12/05 05:20:21;;;;;;;14.77;8.52;;;4.30;99.90;;;;;;3622503;39;20382;-74
2020/12/05 05:22:49;;;;;;;12.77;7.93;;;4.30;99.90;;;;;;3626681;32;20310;-73
2020/12/05 05:25:15;;;;;;;11.10;7.45;;;4.30;99.90;;;;;;3624186;39;20354;-73
2020/12/05 05:27:57;;;;;;;12.40;8.13;;;4.30;99.90;;;;;;3621431;39;20268;-73
2020/12/05 05:30:24;;;;;;;10.02;8.20;;;4.40;99.90;;;;;;3620847;39;20350;-73
2020/12/05 05:32:52;;;;;;;10.93;8.23;;;4.40;99.90;;;;;;3623080;39;20281;-73
2020/12/05 05:35:19;;;;;;;9.52;7.28;;;4.40;99.90;;;;;;3621472;39;20346;-73
2020/12/05 05:37:45;;;;;;;11.35;9.10;;;4.50;99.90;;;;;;3621089;39;20309;-73
2020/12/05 05:40:14;;;;;;;15.02;8.73;;;4.50;99.90;;;;;;3624164;31;20273;-73
2020/12/05 05:42:42;;;;;;;13.80;7.22;;;4.40;99.90;;;;;;3626844;31;20274;-74
2020/12/05 05:45:17;;;;;;;10.68;7.57;;;4.40;99.90;;;;;;3620975;39;20286;-73
2020/12/05 05:47:45;;;;;;;10.82;7.85;;;4.50;99.90;;;;;;3623363;39;20591;-74
2020/12/05 05:50:22;;;;;;;11.35;8.30;;;4.50;99.90;;;;;;3621076;39;20290;-74
2020/12/05 05:52:54;;;;;;;13.02;9.27;;;4.50;99.90;;;;;;3620921;39;20250;-74
2020/12/05 05:55:21;;;;;;;11.20;8.40;;;4.40;99.90;;;;;;3622624;39;20290;-74
2020/12/05 05:57:47;;;;;;;9.85;8.20;;;4.40;99.90;;;;;;3620669;39;20735;-74
2020/12/05 06:00:16;;;;;;;12.65;8.50;;;4.40;99.90;;;;;;3620951;39;20350;-74
2020/12/05 06:02:53;;;;;;;11.65;8.05;;;4.30;99.90;;;;;;3620618;39;20421;-74
2020/12/05 06:05:27;;;;;;;12.57;8.50;;;4.20;99.90;;;;;;3620511;39;20269;-74
2020/12/05 06:07:55;;;;;;;12.13;7.70;;;4.20;99.90;;;;;;3621203;39;20345;-74
2020/12/05 06:10:22;;;;;;;11.90;9.05;;;4.20;99.90;;;;;;3620555;39;20294;-74
2020/12/05 06:12:53;;;;;;;12.68;9.18;;;4.20;99.90;;;;;;3624430;39;20358;-74
2020/12/05 06:15:21;;;;;;;10.32;8.50;;;4.20;99.90;;;;;;3620436;39;20288;-74
2020/12/05 06:17:49;;;;;;;13.45;8.02;;;4.20;99.90;;;;;;3620096;39;20258;-74
2020/12/05 06:20:16;;;;;;;9.65;7.53;;;4.30;99.90;;;;;;3629325;31;20425;-73
2020/12/05 06:22:49;;;;;;;14.10;9.30;;;4.30;99.90;;;;;;3624347;39;20264;-74
2020/12/05 06:25:16;;;;;;;14.25;8.70;;;4.30;99.90;;;;;;3625627;32;20261;-74
2020/12/05 06:27:47;;;;;;;14.38;9.40;;;4.20;99.90;;;;;;3622772;39;20262;-74
2020/12/05 06:30:14;;;;;;;13.70;8.25;;;4.20;99.90;;;;;;3622648;39;20357;-73
2020/12/05 06:32:43;;;;;;;16.85;10.80;;;4.20;99.90;;;;;;3620445;39;20268;-73
2020/12/05 06:35:40;;;;;;;15.27;10.73;;;4.10;99.90;;;;;;3620552;39;20261;-73
2020/12/05 06:38:16;;;;;;;15.82;10.35;;;4.10;99.90;;;;;;3589377;40;20364;-73
2020/12/05 06:40:42;;;;;;;21.92;13.68;;;4.10;99.90;;;;;;3587681;40;20263;-73
2020/12/05 06:43:13;;;;;;;21.30;11.80;;;4.10;99.90;;;;;;3590152;40;20340;-74
2020/12/05 06:45:42;;;;;;;19.30;11.55;;;4.10;99.90;;;;;;3590348;40;20258;-73
2020/12/05 06:48:31;;;;;;;16.38;11.25;;;4.00;99.90;;;;;;3588145;40;20285;-73
2020/12/05 06:50:58;;;;;;;16.88;11.45;;;4.00;99.90;;;;;;3587890;40;20263;-73
2020/12/05 06:53:31;;;;;;;24.73;13.27;;;3.90;99.90;;;;;;3590583;40;20372;-74
2020/12/05 06:55:58;;;;;;;21.65;13.00;;;3.80;99.90;;;;;;3589201;40;20368;-74
2020/12/05 06:58:25;;;;;;;24.02;13.32;;;3.80;99.90;;;;;;3587149;40;20263;-73
2020/12/05 07:00:52;;;;;;;23.13;13.48;;;3.80;99.90;;;;;;3587429;40;20287;-73
2020/12/05 07:03:25;;;;;;;26.33;13.70;;;3.80;99.90;;;;;;3590744;40;20254;-74
2020/12/05 07:05:53;;;;;;;28.55;14.60;;;3.90;99.90;;;;;;3593040;40;20410;-73
2020/12/05 07:08:21;;;;;;;33.22;16.25;;;3.90;99.90;;;;;;3590573;40;20267;-73
2020/12/05 07:10:50;;;;;;;29.75;16.33;;;4.00;99.90;;;;;;3587228;40;20256;-73
2020/12/05 07:13:18;;;;;;;28.88;17.02;;;4.00;99.90;;;;;;3619046;32;20340;-72
2020/12/05 07:15:45;;;;;;;42.30;23.75;;;4.00;99.90;;;;;;3625401;39;20174;-74
2020/12/05 07:18:27;;;;;;;38.75;23.60;;;4.10;99.90;;;;;;3624092;39;20368;-74
2020/12/05 07:20:56;;;;;;;35.38;20.83;;;4.10;99.90;;;;;;3624750;39;20269;-72
2020/12/05 07:23:23;;;;;;;33.33;18.80;;;4.20;99.90;;;;;;3624891;39;20277;-74
2020/12/05 07:25:49;;;;;;;28.33;17.25;;;4.30;99.90;;;;;;3626122;39;20246;-73
2020/12/05 07:28:17;;;;;;;28.30;17.85;;;4.30;99.90;;;;;;3621987;39;20282;-73
2020/12/05 07:30:44;;;;;;;31.42;16.60;;;4.40;99.90;;;;;;3624067;39;20778;-73
2020/12/05 07:33:13;;;;;;;34.10;16.83;;;4.40;99.90;;;;;;3622042;39;20281;-74
2020/12/05 07:35:40;;;;;;;37.83;18.42;;;4.40;99.90;;;;;;3625399;39;20275;-73
2020/12/05 07:38:15;;;;;;;31.67;18.75;;;4.40;99.90;;;;;;3622184;39;20327;-74
2020/12/05 07:40:42;;;;;;;34.30;18.65;;;4.40;99.90;;;;;;3625155;39;20308;-74
2020/12/05 07:43:19;;;;;;;30.85;18.23;;;4.40;99.90;;;;;;3622618;39;20276;-74
2020/12/05 07:45:47;;;;;;;27.88;16.63;;;4.40;99.90;;;;;;3622807;39;20366;-75
2020/12/05 07:48:16;;;;;;;32.63;17.40;;;4.40;99.90;;;;;;3624376;39;20266;-75
2020/12/05 07:50:44;;;;;;;29.35;16.88;;;4.40;99.90;;;;;;3622353;39;20346;-75
2020/12/05 07:53:26;;;;;;;29.02;17.52;;;4.40;99.90;;;;;;3624456;39;20238;-75
2020/12/05 07:55:53;;;;;;;28.15;16.33;;;4.40;99.90;;;;;;3623220;39;20311;-73
2020/12/05 07:58:20;;;;;;;29.20;16.33;;;4.40;99.90;;;;;;3627243;39;20251;-75
2020/12/05 08:00:46;;;;;;;27.52;16.20;;;4.40;99.90;;;;;;3624308;39;20289;-75
2020/12/05 08:03:30;;;;;;;31.20;17.88;;;4.30;99.90;;;;;;3625716;39;20239;-75
2020/12/05 08:06:01;;;;;;;27.23;15.27;;;4.40;99.90;;;;;;3623939;39;20351;-75
2020/12/05 08:08:29;;;;;;;27.35;16.33;;;4.40;99.90;;;;;;3621532;39;20269;-75
2020/12/05 08:11:01;;;;;;;27.55;16.45;;;4.50;99.90;;;;;;3621406;39;20277;-75
2020/12/05 08:13:29;;;;;;;29.23;17.02;;;4.50;99.90;;;;;;3621462;39;20238;-75
2020/12/05 08:16:04;;;;;;;31.20;17.65;;;4.50;99.90;;;;;;3623846;32;20284;-75
2020/12/05 08:18:32;;;;;;;26.98;17.00;;;4.50;99.90;;;;;;3623550;39;20252;-75
2020/12/05 08:21:00;;;;;;;39.55;16.70;;;4.50;99.90;;;;;;3625574;39;20290;-75
2020/12/05 08:23:30;;;;;;;27.38;16.48;;;4.60;99.90;;;;;;3621491;39;20282;-75
2020/12/05 08:26:00;;;;;;;30.88;16.55;;;4.60;99.90;;;;;;3621976;39;20277;-75
2020/12/05 08:28:29;;;;;;;29.17;16.67;;;4.60;99.90;;;;;;3624131;39;20257;-75
2020/12/05 08:30:56;;;;;;;30.08;16.25;;;4.80;99.90;;;;;;3627360;39;20274;-80
2020/12/05 08:33:23;;;;;;;33.50;18.20;;;4.90;99.90;;;;;;3627503;39;20347;-79
2020/12/05 08:35:49;;;;;;;36.97;19.13;;;5.00;99.90;;;;;;3626865;39;20766;-75
2020/12/05 08:38:22;;;;;;;31.60;17.75;;;5.00;99.90;;;;;;3623435;39;20299;-75
2020/12/05 08:41:01;;;;;;;34.78;17.58;;;5.00;99.90;;;;;;3621585;39;20288;-75
2020/12/05 08:43:28;;;;;;;32.38;17.95;;;5.00;99.90;;;;;;3623424;39;20431;-75
2020/12/05 08:45:55;;;;;;;27.38;16.58;;;5.10;99.90;;;;;;3622263;39;20334;-75
2020/12/05 08:48:23;;;;;;;31.67;16.95;;;5.10;99.90;;;;;;3622383;39;20371;-75
2020/12/05 08:50:49;;;;;;;29.10;17.00;;;5.10;99.90;;;;;;3621680;39;20297;-75
2020/12/05 08:53:21;;;;;;;26.58;16.38;;;5.10;99.90;;;;;;3623117;39;20274;-76
2020/12/05 08:55:49;;;;;;;28.83;15.88;;;5.00;99.90;;;;;;3623952;39;20258;-75
2020/12/05 08:58:16;;;;;;;31.52;17.77;;;5.10;99.90;;;;;;3620903;39;20271;-75
2020/12/05 09:00:49;;;;;;;32.28;16.73;;;5.20;99.90;;;;;;3621362;39;20261;-75
2020/12/05 09:03:20;;;;;;;34.55;17.90;;;5.30;99.90;;;;;;3626571;32;20289;-75
2020/12/05 09:05:48;;;;;;;30.90;16.90;;;5.40;99.90;;;;;;3623738;39;20266;-75
2020/12/05 09:08:20;;;;;;;28.40;16.08;;;5.50;99.90;;;;;;3625222;39;20319;-75
2020/12/05 09:10:47;;;;;;;29.00;18.60;;;5.60;99.90;;;;;;3621457;39;20259;-77
2020/12/05 09:13:13;;;;;;;31.40;18.63;;;5.90;99.90;;;;;;3626095;39;20348;-76
2020/12/05 09:16:02;;;;;;;35.72;17.73;;;6.30;99.90;;;;;;3623975;32;20392;-77
2020/12/05 09:18:40;;;;;;;27.42;16.13;;;6.90;99.90;;;;;;3629259;32;20317;-75
2020/12/05 09:21:15;;;;;;;20.52;14.60;;;7.70;99.90;;;;;;3624676;39;20261;-77
2020/12/05 09:23:41;;;;;;;20.83;14.02;;;8.40;99.90;;;;;;3624386;39;20347;-77
2020/12/05 09:26:08;;;;;;;18.52;11.82;;;9.10;99.90;;;;;;3625525;39;20701;-77
2020/12/05 09:28:35;;;;;;;18.17;11.50;;;9.60;99.90;;;;;;3620813;39;20245;-77
2020/12/05 09:31:07;;;;;;;18.38;12.77;;;10.10;99.90;;;;;;3623153;39;20432;-77
2020/12/05 09:33:34;;;;;;;17.35;11.77;;;10.50;99.90;;;;;;3622518;39;20274;-77
2020/12/05 09:36:00;;;;;;;19.48;12.25;;;10.90;99.90;;;;;;3623471;39;20394;-77
2020/12/05 09:38:27;;;;;;;19.25;10.57;;;11.30;99.90;;;;;;3621983;39;20340;-75
2020/12/05 09:40:55;;;;;;;15.02;10.70;;;11.50;99.90;;;;;;3621675;39;20345;-77
2020/12/05 09:43:22;;;;;;;13.85;10.02;;;11.70;99.90;;;;;;3621478;39;20313;-76
2020/12/05 09:45:48;;;;;;;16.00;10.38;;;11.80;99.90;;;;;;3624103;39;20350;-75
2020/12/05 09:48:16;;;;;;;14.90;9.88;;;11.90;99.90;;;;;;3621539;39;20250;-75
2020/12/05 09:50:42;;;;;;;12.57;9.80;;;12.00;99.90;;;;;;3627027;39;20411;-76
2020/12/05 09:53:09;;;;;;;11.75;8.82;;;12.10;99.90;;;;;;3629045;31;20677;-76
2020/12/05 09:55:35;;;;;;;15.10;9.27;;;12.20;99.90;;;;;;3626729;39;20314;-78
2020/12/05 09:58:01;;;;;;;9.70;7.50;;;12.20;99.90;;;;;;3626283;39;20281;-78
2020/12/05 10:00:28;;;;;;;11.82;7.97;;;12.10;99.90;;;;;;3625028;39;20261;-78
2020/12/05 10:02:55;;;;;;;12.18;7.47;;;12.10;99.90;;;;;;3624416;39;20273;-77
2020/12/05 10:05:23;;;;;;;8.80;6.18;;;12.20;99.90;;;;;;3627848;39;20368;-78
2020/12/05 10:07:50;;;;;;;10.98;6.38;;;12.30;99.90;;;;;;3626071;39;20345;-78
2020/12/05 10:10:16;;;;;;;9.30;6.60;;;12.40;99.90;;;;;;3623884;39;20329;-77
2020/12/05 10:12:44;;;;;;;9.32;6.13;;;12.30;99.90;;;;;;3622637;39;20301;-78
2020/12/05 10:15:12;;;;;;;7.13;5.70;;;12.30;99.90;;;;;;3621890;39;20256;-78
2020/12/05 10:17:39;;;;;;;6.95;5.35;;;12.30;99.90;;;;;;3625980;39;20244;-78
2020/12/05 10:20:06;;;;;;;6.53;5.65;;;12.10;99.90;;;;;;3624915;39;20358;-75
2020/12/05 10:22:34;;;;;;;6.95;5.65;;;11.70;99.90;;;;;;3624874;39;20253;-75
2020/12/05 10:25:01;;;;;;;6.75;5.35;;;11.30;99.90;;;;;;3625957;39;20654;-74
2020/12/05 10:27:27;;;;;;;7.50;5.95;;;11.00;99.90;;;;;;3634939;32;20365;-75
2020/12/05 10:29:54;;;;;;;8.82;6.30;;;10.70;99.90;;;;;;3626877;39;20242;-75
2020/12/05 10:32:20;;;;;;;11.43;6.22;;;10.50;99.90;;;;;;3627652;31;20298;-75
2020/12/05 10:34:47;;;;;;;7.45;5.90;;;10.20;99.90;;;;;;3624606;39;20353;-75
2020/12/05 10:37:13;;;;;;;7.65;5.32;;;10.00;99.90;;;;;;3624692;39;20365;-75
2020/12/05 10:39:41;;;;;;;9.77;6.05;;;9.80;99.90;;;;;;3627795;39;20345;-75
2020/12/05 10:42:07;;;;;;;4.88;4.10;;;9.60;99.90;;;;;;3622595;39;20619;-75
2020/12/05 10:44:34;;;;;;;6.55;4.78;;;9.40;99.90;;;;;;3624005;39;20251;-75
2020/12/05 10:47:00;;;;;;;5.65;4.57;;;9.30;99.90;;;;;;3625173;39;20366;-75
2020/12/05 10:49:28;;;;;;;3.30;3.00;;;9.20;99.90;;;;;;3626434;39;20246;-75
2020/12/05 10:51:54;;;;;;;2.10;1.90;;;9.10;99.90;;;;;;3625099;39;20664;-75
2020/12/05 10:54:21;;;;;;;2.75;2.55;;;9.00;99.90;;;;;;3625735;39;20282;-77
2020/12/05 10:56:48;;;;;;;3.63;2.80;;;8.80;99.90;;;;;;3624945;39;20258;-74
2020/12/05 10:59:18;;;;;;;2.25;2.05;;;8.70;99.90;;;;;;3623646;39;20988;-75
2020/12/05 11:14:35;;;;;;;2.38;2.00;;;8.00;99.90;;;;;;3650029;31;20239;-76
2020/12/05 11:17:02;;;;;;;2.15;1.95;;;8.00;99.90;;;;;;3634375;39;20263;-76
2020/12/05 11:19:28;;;;;;;2.40;2.22;;;7.80;99.90;;;;;;3636857;39;20274;-77
2020/12/05 11:21:54;;;;;;;2.65;2.05;;;7.80;99.90;;;;;;3635363;39;20271;-76
2020/12/05 11:24:21;;;;;;;4.82;1.95;;;7.80;99.90;;;;;;3634996;39;20286;-76
2020/12/05 11:26:47;;;;;;;5.43;2.45;;;7.90;99.90;;;;;;3633969;39;20350;-76
2020/12/05 11:29:14;;;;;;;2.70;2.50;;;7.80;99.90;;;;;;3632469;39;20685;-77
2020/12/05 11:31:41;;;;;;;3.20;2.78;;;7.70;99.90;;;;;;3633030;39;20819;-77
2020/12/05 11:34:08;;;;;;;2.70;2.50;;;7.60;99.90;;;;;;3630330;39;20359;-76
2020/12/05 11:36:34;;;;;;;6.15;3.92;;;7.60;99.90;;;;;;3633579;31;20260;-76
2020/12/05 11:39:00;;;;;;;2.22;2.13;;;7.60;99.90;;;;;;3628865;39;20307;-76
2020/12/05 11:41:27;;;;;;;3.72;2.10;;;7.60;99.90;;;;;;3628880;39;20266;-77
2020/12/05 11:43:53;;;;;;;2.45;2.25;;;7.60;99.90;;;;;;3632204;39;20298;-76
2020/12/05 11:46:20;;;;;;;2.08;1.98;;;7.60;99.90;;;;;;3631744;39;20278;-76
2020/12/05 11:48:47;;;;;;;3.28;2.10;;;7.60;99.90;;;;;;3637086;31;20306;-76
2020/12/05 11:51:14;;;;;;;2.50;2.35;;;7.70;99.90;;;;;;3636843;39;20270;-77
2020/12/05 11:53:40;;;;;;;2.22;1.80;;;7.60;99.90;;;;;;3632899;39;20310;-76
2020/12/05 11:56:06;;;;;;;2.70;2.17;;;7.60;99.90;;;;;;3632375;39;20256;-77
2020/12/05 11:58:33;;;;;;;2.47;1.50;;;7.60;99.90;;;;;;3634362;39;20283;-76
2020/12/05 12:01:03;;;;;;;2.65;1.70;;;7.70;99.90;;;;;;3649336;31;20278;-76
2020/12/05 12:03:30;;;;;;;4.32;1.38;;;7.70;99.90;;;;;;3635357;39;20299;-76
2020/12/05 12:05:57;;;;;;;1.42;1.30;;;7.80;99.90;;;;;;3633050;39;20289;-76
2020/12/05 12:08:23;;;;;;;2.45;1.90;;;7.80;99.90;;;;;;3633376;39;20309;-77
2020/12/05 12:10:53;;;;;;;3.00;1.73;;;7.80;99.90;;;;;;3633996;39;20367;-76
2020/12/05 12:13:19;;;;;;;2.60;1.52;;;7.80;99.90;;;;;;3637246;39;20248;-76
2020/12/05 12:15:45;;;;;;;5.07;1.90;;;7.70;99.90;;;;;;3626427;39;20411;-76
2020/12/05 12:18:12;;;;;;;1.55;1.45;;;7.70;99.90;;;;;;3626827;39;20283;-77
2020/12/05 12:20:38;;;;;;;4.65;1.80;;;7.70;99.90;;;;;;3627452;39;20266;-76
2020/12/05 12:23:06;;;;;;;1.73;1.48;;;7.70;99.90;;;;;;3621491;39;20264;-77
2020/12/05 12:25:32;;;;;;;2.83;1.27;;;7.70;99.90;;;;;;3624315;39;20344;-77
2020/12/05 12:27:59;;;;;;;1.85;1.75;;;7.70;99.90;;;;;;3621282;39;20268;-77
2020/12/05 12:30:25;;;;;;;3.78;1.80;;;7.80;99.90;;;;;;3625730;39;20267;-77
2020/12/05 12:32:52;;;;;;;1.65;1.55;;;7.70;99.90;;;;;;3627159;39;20347;-77
2020/12/05 12:35:18;;;;;;;2.08;1.52;;;7.70;99.90;;;;;;3623973;39;20268;-77
2020/12/05 12:37:45;;;;;;;3.08;1.20;;;7.70;99.90;;;;;;3628328;31;21070;-76
2020/12/05 12:40:12;;;;;;;1.95;1.40;;;7.70;99.90;;;;;;3625402;39;20397;-77
2020/12/05 12:42:39;;;;;;;1.90;1.35;;;7.80;99.90;;;;;;3623449;39;20268;-77
2020/12/05 12:45:05;;;;;;;1.70;1.10;;;7.80;99.90;;;;;;3623641;39;20350;-76
2020/12/05 12:47:57;;;;;;;2.35;1.50;;;7.80;99.90;;;;;;3627149;39;20384;-77
2020/12/05 12:50:23;;;;;;;1.90;1.20;;;7.80;99.90;;;;;;3625776;39;20259;-77
2020/12/05 12:52:50;;;;;;;1.60;1.50;;;7.80;99.90;;;;;;3626421;39;20286;-77
2020/12/05 12:55:17;;;;;;;1.42;1.10;;;7.90;99.90;;;;;;3624541;39;20348;-76
2020/12/05 12:57:46;;;;;;;1.52;1.42;;;7.90;99.90;;;;;;3624821;39;20694;-76
2020/12/05 13:00:13;;;;;;;2.95;1.52;;;7.90;99.90;;;;;;3624635;39;20292;-76
2020/12/05 13:02:39;;;;;;;2.88;2.03;;;8.00;99.90;;;;;;3625714;39;20388;-77
2020/12/05 13:05:06;;;;;;;5.82;1.70;;;8.00;99.90;;;;;;3626859;39;20275;-77
2020/12/05 13:07:32;;;;;;;1.60;1.50;;;8.00;99.90;;;;;;3636630;31;21046;-77